createdAt,value
2023-06-17T00:00:28.396Z,4.90
2023-06-17T00:03:31.323Z,5.30
2023-06-17T00:06:33.723Z,5.35
2023-06-17T00:09:36.487Z,5.30
2023-06-17T00:12:40.598Z,5.00
2023-06-17T00:15:43.664Z,5.60
2023-06-17T00:18:48.945Z,6.12
2023-06-17T00:21:51.655Z,5.50
2023-06-17T00:24:53.984Z,4.95
2023-06-17T00:27:56.699Z,5.22
2023-06-17T00:30:59.105Z,5.10
2023-06-17T00:34:01.709Z,5.05
2023-06-17T00:37:04.373Z,5.65
2023-06-17T00:40:09.535Z,5.22
2023-06-17T00:43:12.017Z,5.18
2023-06-17T00:46:35.290Z,5.53
2023-06-17T00:49:41.212Z,5.00
2023-06-17T00:52:46.502Z,5.00
2023-06-17T00:55:49.063Z,4.82
2023-06-17T00:58:52.536Z,5.07
2023-06-17T01:01:54.966Z,5.03
2023-06-17T01:04:58.357Z,4.82
2023-06-17T01:08:16.216Z,4.72
2023-06-17T01:11:22.297Z,4.95
2023-06-17T01:14:27.369Z,4.57
2023-06-17T01:17:31.288Z,4.90
2023-06-17T01:20:34.159Z,5.00
2023-06-17T01:23:39.281Z,5.05
2023-06-17T01:26:42.301Z,4.57
2023-06-17T01:29:50.258Z,5.15
2023-06-17T01:32:52.963Z,4.90
2023-06-17T01:36:15.962Z,4.93
2023-06-17T01:39:22.091Z,4.57
2023-06-17T01:42:33.066Z,4.90
2023-06-17T01:45:35.990Z,5.12
2023-06-17T01:48:40.820Z,4.65
2023-06-17T01:51:43.245Z,5.28
2023-06-17T01:54:46.250Z,4.32
2023-06-17T01:57:48.919Z,4.37
2023-06-17T02:00:53.629Z,4.37
2023-06-17T02:03:56.311Z,4.80
2023-06-17T02:06:59.805Z,4.97
2023-06-17T02:10:04.815Z,4.25
2023-06-17T02:13:09.393Z,4.47
2023-06-17T02:16:12.230Z,4.70
2023-06-17T02:19:15.972Z,4.47
2023-06-17T02:22:18.770Z,4.53
2023-06-17T02:25:21.590Z,4.82
2023-06-17T02:28:24.334Z,4.32
2023-06-17T02:31:28.812Z,4.15
2023-06-17T02:34:34.307Z,4.35
2023-06-17T02:37:37.392Z,4.72
2023-06-17T02:43:44.374Z,4.85
2023-06-17T02:46:47.144Z,4.60
2023-06-17T02:49:49.580Z,4.47
2023-06-17T02:52:57.346Z,5.28
2023-06-17T02:56:00.356Z,4.57
2023-06-17T02:59:04.375Z,4.55
2023-06-17T03:02:07.605Z,5.23
2023-06-17T03:05:10.623Z,4.43
2023-06-17T03:08:16.010Z,5.10
2023-06-17T03:11:18.987Z,4.35
2023-06-17T03:14:22.043Z,4.78
2023-06-17T03:17:26.230Z,4.97
2023-06-17T03:20:30.010Z,4.55
2023-06-17T03:23:32.949Z,4.70
2023-06-17T03:26:35.789Z,5.15
2023-06-17T03:29:38.416Z,4.97
2023-06-17T03:32:41.050Z,4.65
2023-06-17T03:35:44.033Z,4.80
2023-06-17T03:38:46.895Z,5.12
2023-06-17T03:41:49.961Z,5.15
2023-06-17T03:44:52.944Z,4.87
2023-06-17T03:47:56.066Z,5.07
2023-06-17T03:50:58.563Z,4.83
2023-06-17T03:54:03.739Z,4.87
2023-06-17T03:57:08.685Z,4.95
2023-06-17T04:00:12.650Z,5.25
2023-06-17T04:03:16.913Z,5.00
2023-06-17T04:06:21.207Z,4.75
2023-06-17T04:09:23.597Z,4.80
2023-06-17T04:12:26.269Z,4.93
2023-06-17T04:15:28.813Z,4.60
2023-06-17T04:18:32.364Z,5.10
2023-06-17T04:21:35.800Z,4.90
2023-06-17T04:24:39.438Z,5.00
2023-06-17T04:27:42.346Z,5.05
2023-06-17T04:30:46.849Z,4.20
2023-06-17T04:36:58.051Z,4.45
2023-06-17T04:40:01.748Z,4.80
2023-06-17T04:43:05.824Z,5.05
2023-06-17T04:46:09.409Z,4.50
2023-06-17T04:49:13.163Z,4.43
2023-06-17T04:52:15.559Z,4.70
2023-06-17T04:55:19.801Z,4.68
2023-06-17T04:58:22.362Z,4.62
2023-06-17T05:01:25.904Z,5.20
2023-06-17T05:04:28.507Z,4.20
2023-06-17T05:07:31.365Z,4.50
2023-06-17T05:10:33.895Z,4.50
2023-06-17T05:13:36.618Z,4.53
2023-06-17T05:16:39.275Z,4.78
2023-06-17T05:19:42.111Z,5.03
2023-06-17T05:22:44.539Z,4.68
2023-06-17T05:25:47.297Z,4.82
2023-06-17T05:28:49.841Z,5.07
2023-06-17T05:31:52.870Z,4.78
2023-06-17T05:34:55.663Z,4.57
2023-06-17T05:37:58.337Z,4.28
2023-06-17T05:41:00.981Z,4.45
2023-06-17T05:47:07.367Z,4.05
2023-06-17T05:50:11.036Z,4.45
2023-06-17T05:56:17.864Z,4.50
2023-06-17T05:59:20.391Z,4.07
2023-06-17T06:02:23.514Z,4.50
2023-06-17T06:05:26.173Z,7.30
2023-06-17T06:08:28.559Z,6.40
2023-06-17T06:11:31.214Z,5.20
2023-06-17T06:14:34.220Z,5.18
2023-06-17T06:17:37.036Z,7.63
2023-06-17T06:20:39.545Z,6.40
2023-06-17T06:23:42.686Z,4.97
2023-06-17T06:26:45.417Z,5.05
2023-06-17T06:29:48.898Z,4.53
2023-06-17T06:32:51.340Z,4.53
2023-06-17T06:35:54.130Z,4.55
2023-06-17T06:39:16.121Z,4.77
2023-06-17T06:42:19.342Z,4.32
2023-06-17T06:45:22.105Z,4.80
2023-06-17T06:48:24.805Z,5.62
2023-06-17T06:51:27.276Z,4.60
2023-06-17T06:54:30.537Z,4.28
2023-06-17T06:57:33.290Z,4.40
2023-06-17T07:00:35.971Z,4.07
2023-06-17T07:03:38.842Z,4.07
2023-06-17T07:09:45.374Z,4.55
2023-06-17T07:12:48.101Z,5.37
2023-06-17T07:15:51.311Z,5.97
2023-06-17T07:18:54.427Z,5.87
2023-06-17T07:21:57.297Z,4.30
2023-06-17T07:25:00.457Z,4.40
2023-06-17T07:28:03.076Z,4.30
2023-06-17T07:31:06.859Z,4.40
2023-06-17T07:37:12.182Z,4.00
2023-06-17T07:40:14.933Z,4.55
2023-06-17T07:43:17.991Z,6.60
2023-06-17T07:46:20.548Z,7.27
2023-06-17T07:49:23.235Z,4.80
2023-06-17T07:52:25.706Z,4.05
2023-06-17T07:55:30.328Z,4.07
2023-06-17T07:58:32.750Z,4.07
2023-06-17T08:01:36.586Z,3.85
2023-06-17T08:04:39.349Z,4.10
2023-06-17T08:07:41.800Z,4.20
2023-06-17T08:10:44.693Z,3.87
2023-06-17T08:13:47.418Z,4.20
2023-06-17T08:16:50.234Z,3.55
2023-06-17T08:19:52.655Z,3.80
2023-06-17T08:22:55.398Z,3.70
2023-06-17T08:25:58.011Z,3.53
2023-06-17T08:29:00.640Z,3.97
2023-06-17T08:32:03.237Z,4.10
2023-06-17T08:35:08.010Z,3.85
2023-06-17T08:38:10.671Z,3.50
2023-06-17T08:41:13.895Z,3.40
2023-06-17T08:44:17.091Z,3.40
2023-06-17T08:47:20.053Z,3.55
2023-06-17T08:50:23.066Z,3.92
2023-06-17T08:53:27.465Z,3.80
2023-06-17T08:56:29.909Z,3.62
2023-06-17T08:59:32.655Z,3.85
2023-06-17T09:02:37.050Z,4.00
2023-06-17T09:05:40.051Z,3.90
2023-06-17T09:08:43.877Z,3.85
2023-06-17T09:11:55.127Z,3.33
2023-06-17T09:14:57.532Z,3.65
2023-06-17T09:18:00.474Z,3.80
2023-06-17T09:21:03.965Z,3.58
2023-06-17T09:24:10.159Z,3.80
2023-06-17T09:27:21.713Z,3.42
2023-06-17T09:30:25.435Z,3.47
2023-06-17T09:33:28.459Z,3.50
2023-06-17T09:36:31.228Z,3.90
2023-06-17T09:39:34.770Z,3.90
2023-06-17T09:42:38.477Z,3.28
2023-06-17T09:45:41.221Z,4.00
2023-06-17T09:51:48.324Z,3.70
2023-06-17T09:54:53.094Z,3.50
2023-06-17T09:57:56.737Z,3.53
2023-06-17T10:01:01.782Z,3.90
2023-06-17T10:04:05.218Z,3.60
2023-06-17T10:07:08.453Z,3.83
2023-06-17T10:10:14.676Z,3.50
2023-06-17T10:13:20.500Z,3.47
2023-06-17T10:16:27.454Z,3.55
2023-06-17T10:19:33.374Z,3.55
2023-06-17T10:22:38.866Z,3.28
2023-06-17T10:25:41.706Z,3.72
2023-06-17T10:28:58.416Z,3.50
2023-06-17T10:32:17.614Z,3.60
2023-06-17T10:35:21.040Z,3.25
2023-06-17T10:38:30.837Z,3.62
2023-06-17T10:41:39.641Z,3.45
2023-06-17T10:44:44.624Z,3.10
2023-06-17T10:47:50.634Z,3.30
2023-06-17T10:50:55.353Z,3.30
2023-06-17T10:53:58.132Z,3.30
2023-06-17T10:57:05.884Z,3.00
2023-06-17T11:00:11.416Z,3.42
2023-06-17T11:03:18.100Z,3.47
2023-06-17T11:06:20.797Z,3.40
2023-06-17T11:09:26.946Z,3.08
2023-06-17T11:12:29.699Z,2.85
2023-06-17T11:15:32.146Z,2.87
2023-06-17T11:18:40.169Z,3.10
2023-06-17T11:21:42.900Z,3.00
2023-06-17T11:27:49.055Z,3.17
2023-06-17T11:34:00.798Z,2.92
2023-06-17T11:37:07.899Z,2.87
2023-06-17T11:40:12.250Z,2.90
2023-06-17T11:43:17.663Z,2.83
2023-06-17T11:46:24.661Z,2.80
2023-06-17T11:49:30.254Z,2.97
2023-06-17T11:52:36.348Z,3.10
2023-06-17T11:55:39.735Z,2.85
2023-06-17T11:58:43.511Z,2.83
2023-06-17T12:01:49.322Z,3.03
2023-06-17T12:04:52.102Z,3.00
2023-06-17T12:07:57.695Z,2.80
2023-06-17T12:11:08.593Z,2.78
2023-06-17T12:14:14.123Z,2.90
2023-06-17T12:17:17.751Z,2.70
2023-06-17T12:20:24.447Z,2.83
2023-06-17T12:23:28.334Z,2.85
2023-06-17T12:26:35.979Z,2.90
2023-06-17T12:29:38.701Z,2.83
2023-06-17T12:32:41.489Z,2.65
2023-06-17T12:35:44.309Z,2.80
2023-06-17T12:38:47.544Z,2.65
2023-06-17T12:41:52.506Z,2.85
2023-06-17T12:44:55.053Z,2.47
2023-06-17T12:47:59.272Z,2.30
2023-06-17T12:51:02.114Z,2.47
2023-06-17T12:57:08.739Z,2.58
2023-06-17T13:00:16.427Z,2.40
2023-06-17T13:03:19.132Z,2.47
2023-06-17T13:06:24.949Z,2.45
2023-06-17T13:09:27.390Z,2.30
2023-06-17T13:12:30.025Z,2.40
2023-06-17T13:15:32.433Z,2.30
2023-06-17T13:18:36.239Z,2.25
2023-06-17T13:21:38.986Z,2.20
2023-06-17T13:24:44.106Z,2.15
2023-06-17T13:27:46.738Z,1.90
2023-06-17T13:30:50.312Z,2.10
2023-06-17T13:33:52.713Z,2.10
2023-06-17T13:36:56.054Z,2.37
2023-06-17T13:39:58.616Z,2.10
2023-06-17T13:43:02.355Z,2.03
2023-06-17T13:46:05.984Z,2.00
2023-06-17T13:49:09.037Z,1.80
2023-06-17T13:52:12.808Z,1.92
2023-06-17T13:55:15.769Z,1.83
2023-06-17T13:58:18.199Z,2.03
2023-06-17T14:01:21.337Z,2.20
2023-06-17T14:07:27.599Z,2.10
2023-06-17T14:10:36.303Z,2.20
2023-06-17T14:13:38.758Z,2.10
2023-06-17T14:16:41.627Z,2.30
2023-06-17T14:19:44.081Z,2.00
2023-06-17T14:22:46.803Z,3.20
2023-06-17T14:26:04.300Z,4.45
2023-06-17T14:29:09.111Z,2.87
2023-06-17T14:32:20.450Z,2.25
2023-06-17T14:35:26.088Z,1.67
2023-06-17T14:38:28.466Z,2.12
2023-06-17T14:41:33.660Z,2.22
2023-06-17T14:44:36.440Z,2.50
2023-06-17T14:47:42.715Z,2.12
2023-06-17T14:50:55.030Z,2.25
2023-06-17T14:53:57.754Z,2.13
2023-06-17T14:57:02.655Z,1.90
2023-06-17T15:00:06.586Z,2.20
2023-06-17T15:03:11.437Z,2.00
2023-06-17T15:06:19.976Z,2.03
2023-06-17T15:09:28.293Z,1.70
2023-06-17T15:12:31.255Z,1.87
2023-06-17T15:15:33.665Z,3.25
2023-06-17T15:18:39.491Z,3.30
2023-06-17T15:21:42.709Z,3.80
2023-06-17T15:24:51.431Z,2.28
2023-06-17T15:27:53.768Z,1.90
2023-06-17T15:30:57.618Z,2.05
2023-06-17T15:34:00.876Z,2.30
2023-06-17T15:37:03.728Z,2.00
2023-06-17T15:40:12.954Z,1.80
2023-06-17T15:43:17.114Z,2.00
2023-06-17T15:46:21.606Z,1.63
2023-06-17T15:49:24.413Z,1.87
2023-06-17T15:52:28.644Z,1.90
2023-06-17T15:55:34.985Z,1.90
2023-06-17T15:58:37.521Z,1.83
2023-06-17T16:01:40.221Z,1.85
2023-06-17T16:04:45.131Z,1.90
2023-06-17T16:07:47.524Z,2.80
2023-06-17T16:10:50.323Z,3.65
2023-06-17T16:13:52.650Z,2.23
2023-06-17T16:16:55.631Z,2.08
2023-06-17T16:19:59.184Z,1.87
2023-06-17T16:23:03.397Z,2.20
2023-06-17T16:26:05.803Z,2.30
2023-06-17T16:29:12.360Z,2.00
2023-06-17T16:32:14.836Z,1.65
2023-06-17T16:35:17.489Z,2.17
2023-06-17T16:38:22.551Z,2.25
2023-06-17T16:41:25.208Z,2.00
2023-06-17T16:44:27.706Z,4.07
2023-06-17T16:47:46.148Z,4.32
2023-06-17T16:50:51.350Z,2.75
2023-06-17T16:53:56.474Z,2.50
2023-06-17T16:56:58.851Z,2.05
2023-06-17T17:00:04.116Z,2.47
2023-06-17T17:03:08.201Z,2.30
2023-06-17T17:06:11.015Z,5.97
2023-06-17T17:09:13.389Z,3.30
2023-06-17T17:12:16.142Z,3.00
2023-06-17T17:15:22.871Z,2.92
2023-06-17T17:18:28.742Z,2.85
2023-06-17T17:21:31.675Z,3.22
2023-06-17T17:24:36.815Z,2.90
2023-06-17T17:27:39.504Z,2.58
2023-06-17T17:30:45.051Z,3.15
2023-06-17T17:33:47.470Z,2.92
2023-06-17T17:36:55.296Z,2.67
2023-06-17T17:39:57.791Z,3.00
2023-06-17T17:43:00.544Z,3.55
2023-06-17T17:46:05.319Z,4.50
2023-06-17T17:49:08.109Z,3.60
2023-06-17T17:52:10.955Z,3.20
2023-06-17T17:55:18.654Z,3.37
2023-06-17T17:58:21.647Z,3.50
2023-06-17T18:01:24.281Z,3.40
2023-06-17T18:04:27.235Z,3.00
2023-06-17T18:07:32.561Z,3.30
2023-06-17T18:10:36.517Z,3.40
2023-06-17T18:13:47.684Z,3.33
2023-06-17T18:16:50.420Z,3.08
2023-06-17T18:19:53.480Z,3.42
2023-06-17T18:22:56.582Z,3.75
2023-06-17T18:25:59.006Z,3.58
2023-06-17T18:29:04.352Z,3.83
2023-06-17T18:32:11.955Z,3.53
2023-06-17T18:35:16.584Z,3.60
2023-06-17T18:38:19.135Z,3.75
2023-06-17T18:41:26.929Z,4.53
2023-06-17T18:44:29.461Z,3.17
2023-06-17T18:47:34.541Z,3.70
2023-06-17T18:50:37.396Z,3.92
2023-06-17T18:53:40.942Z,3.87
2023-06-17T18:56:45.457Z,3.70
2023-06-17T18:59:50.871Z,4.40
2023-06-17T19:02:55.836Z,31.62
2023-06-17T19:05:58.752Z,42.15
2023-06-17T19:09:01.265Z,90.47
2023-06-17T19:12:07.536Z,44.72
2023-06-17T19:15:13.162Z,130.87
2023-06-17T19:18:18.315Z,75.60
2023-06-17T19:21:26.510Z,28.08
2023-06-17T19:24:44.125Z,7.68
2023-06-17T19:27:54.269Z,5.60
2023-06-17T19:30:58.996Z,4.45
2023-06-17T19:34:02.301Z,3.97
2023-06-17T19:37:05.145Z,4.82
2023-06-17T19:40:08.491Z,4.82
2023-06-17T19:43:11.074Z,4.12
2023-06-17T19:46:15.730Z,4.35
2023-06-17T19:49:19.505Z,4.40
2023-06-17T19:52:22.439Z,4.22
2023-06-17T19:55:25.847Z,4.10
2023-06-17T19:58:28.556Z,4.00
2023-06-17T20:01:31.712Z,4.50
2023-06-17T20:04:35.278Z,4.40
2023-06-17T20:07:37.835Z,6.30
2023-06-17T20:10:41.722Z,5.03
2023-06-17T20:16:46.633Z,4.18
2023-06-17T20:19:49.019Z,4.20
2023-06-17T20:22:51.968Z,4.37
2023-06-17T20:25:54.533Z,4.50
2023-06-17T20:28:57.188Z,4.35
2023-06-17T20:31:59.549Z,4.55
2023-06-17T20:35:02.286Z,4.47
2023-06-17T20:38:04.749Z,4.43
2023-06-17T20:41:07.382Z,4.40
2023-06-17T20:44:09.900Z,4.75
2023-06-17T20:47:12.848Z,4.60
2023-06-17T20:50:15.482Z,4.67
2023-06-17T20:53:18.309Z,4.28
2023-06-17T20:56:23.050Z,4.78
2023-06-17T20:59:25.848Z,4.07
2023-06-17T21:02:28.330Z,4.70
2023-06-17T21:05:31.226Z,4.70
2023-06-17T21:08:33.858Z,4.25
2023-06-17T21:11:36.542Z,4.32
2023-06-17T21:14:38.923Z,4.47
2023-06-17T21:17:41.881Z,4.50
2023-06-17T21:20:44.267Z,4.72
2023-06-17T21:23:47.111Z,4.60
2023-06-17T21:26:49.488Z,4.22
2023-06-17T21:29:52.175Z,4.07
2023-06-17T21:32:54.845Z,4.12
2023-06-17T21:35:57.546Z,3.90
2023-06-17T21:38:59.951Z,4.20
2023-06-17T21:42:02.586Z,4.40
2023-06-17T21:45:05.444Z,4.40
2023-06-17T21:48:08.168Z,4.12
2023-06-17T21:51:10.713Z,4.43
2023-06-17T21:54:13.408Z,4.60
2023-06-17T21:57:16.190Z,4.32
2023-06-17T22:00:20.195Z,4.32
2023-06-17T22:03:24.030Z,4.25
2023-06-17T22:06:26.570Z,3.67
2023-06-17T22:09:29.406Z,5.27
2023-06-17T22:12:32.060Z,6.45
2023-06-17T22:15:34.828Z,6.87
2023-06-17T22:18:37.163Z,6.97
2023-06-17T22:21:39.801Z,9.68
2023-06-17T22:24:42.662Z,5.40
2023-06-17T22:30:48.861Z,15.73
2023-06-17T22:33:51.526Z,7.35
2023-06-17T22:36:53.880Z,5.05
2023-06-17T22:39:56.561Z,5.47
2023-06-17T22:42:59.200Z,4.68
2023-06-17T22:46:03.636Z,5.07
2023-06-17T22:49:06.056Z,4.75
2023-06-17T22:52:08.795Z,4.70
2023-06-17T22:55:11.315Z,4.65
2023-06-17T22:58:13.978Z,4.20
2023-06-17T23:01:16.443Z,4.62
2023-06-17T23:04:19.167Z,3.83
2023-06-17T23:07:21.497Z,3.90
2023-06-17T23:10:24.414Z,3.60
2023-06-17T23:13:29.889Z,3.53
2023-06-17T23:16:32.851Z,3.60
2023-06-17T23:19:35.441Z,3.33
2023-06-17T23:22:38.388Z,3.63
2023-06-17T23:25:40.983Z,3.10
2023-06-17T23:28:43.586Z,3.42
2023-06-17T23:31:47.145Z,3.70
2023-06-17T23:34:53.265Z,3.28
2023-06-17T23:37:56.448Z,4.07
2023-06-17T23:40:59.760Z,3.67
2023-06-17T23:44:02.330Z,3.67
2023-06-17T23:47:05.151Z,3.20
2023-06-17T23:50:08.516Z,3.75
2023-06-17T23:56:15.216Z,3.58
2023-06-17T23:59:17.888Z,3.80
